Time;durP1;ratioP1;P1;durP2;ratioP2;P2;SDS_P1;SDS_P2;PMS_P1;PMS_P2;Temp;Humidity;BMP_temperature;BMP_pressure;BME280_temperature;BME280_humidity;BME280_pressure;Samples;Min_cycle;Max_cycle;Signal;HPM_P1;HPM_P2
2024/02/22 00:03:13;;;;;;;8.98;1.15;;;;;;;9.38;77.86;99268.03;10357301;28;20127;-62
2024/02/22 00:08:15;;;;;;;0.93;0.73;;;;;;;9.33;78.06;99251.69;10358299;28;20052;-61
2024/02/22 00:13:16;;;;;;;2.58;1.25;;;;;;;9.38;78.11;99241.22;10357780;28;20042;-62
2024/02/22 00:18:18;;;;;;;4.13;0.80;;;;;;;9.38;78.08;99221.59;10353541;28;20087;-63
2024/02/22 00:23:19;;;;;;;4.07;1.50;;;;;;;9.30;78.50;99226.09;10351654;28;20041;-61
2024/02/22 00:28:21;;;;;;;4.50;1.33;;;;;;;9.32;78.70;99210.63;10356882;28;20046;-62
2024/02/22 00:33:22;;;;;;;2.75;1.08;;;;;;;9.37;78.65;99204.66;10355394;28;20045;-61
2024/02/22 00:38:25;;;;;;;2.65;1.08;;;;;;;9.39;78.69;99185.72;10356205;28;20160;-62
2024/02/22 00:43:26;;;;;;;4.90;1.13;;;;;;;9.38;78.62;99174.16;10352883;28;20046;-61
2024/02/22 00:48:27;;;;;;;3.75;0.80;;;;;;;9.41;78.94;99160.34;10355894;28;20069;-61
2024/02/22 00:53:29;;;;;;;3.05;1.00;;;;;;;9.41;78.93;99157.66;10353063;28;20050;-61
2024/02/22 00:58:31;;;;;;;4.07;1.10;;;;;;;9.34;79.31;99151.44;10354739;28;20042;-62
2024/02/22 01:03:32;;;;;;;3.60;0.77;;;;;;;9.44;79.16;99134.97;10352654;28;20059;-62
2024/02/22 01:08:34;;;;;;;4.05;0.85;;;;;;;9.48;79.12;99130.88;10355400;28;20050;-61
2024/02/22 01:13:35;;;;;;;2.67;0.73;;;;;;;9.48;79.27;99114.78;10350604;28;20489;-62
2024/02/22 01:18:37;;;;;;;2.60;0.82;;;;;;;9.44;79.51;99103.63;10355973;28;20077;-62
2024/02/22 01:23:38;;;;;;;4.32;1.02;;;;;;;9.42;79.63;99092.28;10363508;28;20085;-61
2024/02/22 01:28:39;;;;;;;1.48;0.70;;;;;;;9.49;79.69;99085.06;10361712;28;20129;-61
2024/02/22 01:33:43;;;;;;;4.95;1.25;;;;;;;9.49;79.68;99073.50;10360473;28;20054;-61
2024/02/22 01:38:44;;;;;;;3.15;0.90;;;;;;;9.44;80.14;99062.53;10361593;28;20056;-61
2024/02/22 01:43:46;;;;;;;1.95;1.02;;;;;;;9.49;80.06;99054.75;10362562;28;20574;-61
2024/02/22 01:48:47;;;;;;;2.90;0.77;;;;;;;9.56;80.05;99047.56;10359665;28;20546;-61
2024/02/22 01:53:50;;;;;;;2.17;0.93;;;;;;;9.59;80.03;99017.63;10363063;28;20729;-61
2024/02/22 01:58:52;;;;;;;4.38;0.60;;;;;;;9.61;79.93;99020.94;10363925;28;20133;-61
2024/02/22 02:03:54;;;;;;;3.80;1.13;;;;;;;9.57;80.63;99016.19;10362309;28;20132;-61
2024/02/22 02:09:04;;;;;;;2.80;0.90;;;;;;;9.59;80.74;99000.69;10359872;28;20042;-60
2024/02/22 02:14:05;;;;;;;3.17;0.98;;;;;;;9.59;80.63;98998.84;10358456;28;20050;-62
2024/02/22 02:19:10;;;;;;;2.20;0.80;;;;;;;9.61;80.74;98991.41;10360936;28;20049;-62
2024/02/22 02:24:26;;;;;;;1.42;0.77;;;;;;;9.62;80.89;98985.03;10359203;28;20115;-62
2024/02/22 02:29:27;;;;;;;2.05;0.70;;;;;;;9.64;80.96;98974.09;10361051;28;20042;-62
2024/02/22 02:34:28;;;;;;;2.47;0.82;;;;;;;9.67;80.81;98961.09;10360289;28;20384;-64
2024/02/22 02:39:30;;;;;;;2.30;0.95;;;;;;;9.69;80.87;98952.84;10362603;28;20058;-64
2024/02/22 02:44:32;;;;;;;1.60;0.65;;;;;;;9.70;81.21;98947.28;10360559;28;20045;-63
2024/02/22 02:49:33;;;;;;;3.78;0.85;;;;;;;9.76;81.02;98931.38;10358938;28;20057;-65
2024/02/22 02:54:35;;;;;;;2.58;0.80;;;;;;;9.78;81.21;98921.28;10358577;28;20100;-63
2024/02/22 02:59:36;;;;;;;2.33;1.58;;;;;;;9.77;81.14;98914.25;10358092;28;20054;-62
2024/02/22 03:04:38;;;;;;;3.10;1.20;;;;;;;9.81;81.32;98923.53;10359412;28;20042;-63
2024/02/22 03:09:39;;;;;;;3.60;1.63;;;;;;;9.85;81.26;98908.66;10358587;28;20057;-62
2024/02/22 03:14:41;;;;;;;4.32;1.45;;;;;;;9.86;81.31;98899.59;10359778;28;20054;-62
2024/02/22 03:19:42;;;;;;;4.80;2.05;;;;;;;9.91;81.32;98905.16;10357011;28;20057;-64
2024/02/22 03:24:43;;;;;;;3.60;1.60;;;;;;;9.90;81.35;98898.16;10359222;28;20070;-64
2024/02/22 03:29:46;;;;;;;5.15;1.90;;;;;;;9.90;81.22;98880.19;10355575;28;20121;-63
2024/02/22 03:34:48;;;;;;;5.35;1.42;;;;;;;9.95;81.31;98868.81;10357952;28;20061;-63
2024/02/22 03:39:50;;;;;;;2.25;1.00;;;;;;;9.98;81.40;98867.59;10356454;28;20168;-63
2024/02/22 03:44:51;;;;;;;3.33;1.42;;;;;;;10.00;81.29;98871.69;10357873;28;20176;-62
2024/02/22 03:49:53;;;;;;;3.63;1.80;;;;;;;10.00;81.38;98852.91;10351957;28;20067;-63
2024/02/22 03:54:54;;;;;;;3.05;1.60;;;;;;;10.05;81.28;98844.22;10355607;28;20144;-63
2024/02/22 03:59:56;;;;;;;4.70;2.30;;;;;;;10.07;81.46;98840.31;10358618;28;20053;-62
2024/02/22 04:04:57;;;;;;;5.97;2.50;;;;;;;10.10;81.30;98842.56;10357160;28;20069;-63
2024/02/22 04:09:59;;;;;;;3.70;2.25;;;;;;;10.06;81.55;98841.31;10354729;28;20057;-62
2024/02/22 04:15:00;;;;;;;6.47;3.38;;;;;;;10.06;81.54;98843.19;10356229;28;20053;-62
2024/02/22 04:20:02;;;;;;;7.00;3.08;;;;;;;10.12;81.35;98821.69;10355211;28;20049;-63
2024/02/22 04:25:04;;;;;;;7.22;3.45;;;;;;;10.06;81.36;98816.34;10355584;28;20130;-63
2024/02/22 04:30:06;;;;;;;5.82;3.38;;;;;;;10.08;81.92;98798.97;10349645;28;20042;-62
2024/02/22 04:35:09;;;;;;;6.53;3.38;;;;;;;10.03;81.95;98798.81;10355275;28;20091;-62
2024/02/22 04:40:11;;;;;;;9.15;3.90;;;;;;;10.02;82.10;98793.66;10351886;28;20080;-62
2024/02/22 04:45:13;;;;;;;7.05;3.53;;;;;;;10.05;81.85;98794.06;10356726;28;20054;-63
2024/02/22 04:50:15;;;;;;;6.88;3.33;;;;;;;10.11;81.72;98779.78;10358188;28;20073;-59
2024/02/22 04:55:18;;;;;;;9.07;3.80;;;;;;;10.20;81.97;98774.16;10358132;28;20049;-62
2024/02/22 05:00:20;;;;;;;7.43;3.90;;;;;;;10.23;81.74;98757.63;10355501;28;20038;-60
2024/02/22 05:05:21;;;;;;;10.88;4.63;;;;;;;10.25;81.57;98772.50;10357489;28;20046;-59
2024/02/22 05:10:23;;;;;;;8.57;3.70;;;;;;;10.25;81.99;98756.38;10352460;28;20053;-60
2024/02/22 05:15:24;;;;;;;7.93;3.38;;;;;;;10.28;81.74;98757.81;10354685;28;20547;-60
2024/02/22 05:20:25;;;;;;;7.28;3.42;;;;;;;10.26;82.06;98741.09;10355561;28;20046;-60
2024/02/22 05:25:27;;;;;;;6.18;3.33;;;;;;;10.27;82.17;98740.06;10354437;28;20433;-59
2024/02/22 05:30:28;;;;;;;6.20;2.70;;;;;;;10.33;81.83;98725.81;10355438;28;20046;-60
2024/02/22 05:35:30;;;;;;;5.72;2.35;;;;;;;10.35;82.06;98722.88;10349211;28;20049;-60
2024/02/22 05:40:31;;;;;;;5.35;2.20;;;;;;;10.36;81.91;98717.31;10354090;28;20049;-59
2024/02/22 05:45:42;;;;;;;6.57;3.15;;;;;;;10.35;82.31;98715.69;10354697;28;20050;-61
2024/02/22 05:50:43;;;;;;;6.18;2.10;;;;;;;10.45;81.75;98713.34;10354996;28;20046;-60
2024/02/22 05:55:48;;;;;;;4.50;1.83;;;;;;;10.46;81.77;98704.22;10352907;28;20037;-59
2024/02/22 06:00:50;;;;;;;4.60;1.85;;;;;;;10.45;82.06;98691.03;10349856;28;20058;-64
2024/02/22 06:05:51;;;;;;;2.72;1.15;;;;;;;10.46;82.01;98696.16;10360740;28;20057;-62
2024/02/22 06:10:53;;;;;;;2.45;1.08;;;;;;;10.42;82.11;98681.53;10372267;28;20115;-62
2024/02/22 06:15:55;;;;;;;3.13;1.45;;;;;;;10.48;81.87;98669.91;10375803;28;20058;-62
2024/02/22 06:20:56;;;;;;;1.63;1.20;;;;;;;10.47;82.10;98665.59;10382484;28;20105;-63
2024/02/22 06:25:58;;;;;;;2.38;1.75;;;;;;;10.51;82.34;98657.94;10361035;28;20046;-68
2024/02/22 06:31:00;;;;;;;3.20;1.40;;;;;;;10.62;81.96;98659.06;10359087;28;20100;-68
2024/02/22 06:36:01;;;;;;;6.45;2.13;;;;;;;10.59;82.20;98659.53;10358708;28;20038;-69
2024/02/22 06:41:03;;;;;;;4.55;2.50;;;;;;;10.61;82.10;98660.13;10356290;28;20041;-65
2024/02/22 06:46:07;;;;;;;4.30;2.42;;;;;;;10.64;82.20;98673.97;10355977;28;20042;-66
2024/02/22 06:51:09;;;;;;;5.75;2.03;;;;;;;10.70;81.80;98665.03;10348083;28;20042;-66
2024/02/22 06:56:11;;;;;;;4.70;2.38;;;;;;;10.74;81.50;98648.44;10357883;28;20389;-69
2024/02/22 07:01:13;;;;;;;5.28;2.55;;;;;;;10.78;81.98;98631.69;10356181;28;20080;-68
2024/02/22 07:06:15;;;;;;;5.78;3.28;;;;;;;10.83;81.56;98618.38;10358735;28;20048;-67
2024/02/22 07:11:17;;;;;;;12.18;4.47;;;;;;;10.82;81.76;98610.53;10371347;28;20030;-64
2024/02/22 07:16:18;;;;;;;11.40;6.13;;;;;;;10.82;81.77;98603.31;10420946;22;20041;-85
2024/02/22 07:21:21;;;;;;;12.45;4.93;;;;;;;10.80;81.54;98602.72;10413857;28;20038;-84
2024/02/22 07:26:22;;;;;;;9.48;5.22;;;;;;;10.82;81.69;98605.16;10388803;28;20096;-89
2024/02/22 07:31:24;;;;;;;7.80;4.43;;;;;;;10.85;81.67;98594.78;10368108;28;20048;-87
2024/02/22 07:36:26;;;;;;;8.57;4.88;;;;;;;10.84;82.20;98600.38;10338067;28;20057;-89
2024/02/22 07:41:27;;;;;;;8.85;4.78;;;;;;;10.83;81.65;98596.88;10319580;28;20046;-90
2024/02/22 07:46:29;;;;;;;7.80;5.18;;;;;;;10.83;81.86;98596.06;10319937;28;20042;-90
2024/02/22 07:51:31;;;;;;;7.40;4.35;;;;;;;10.79;82.00;98586.81;10319991;28;20042;-88
2024/02/22 07:56:39;;;;;;;7.85;4.63;;;;;;;10.78;82.02;98577.94;10316015;28;20059;-89
2024/02/22 08:01:42;;;;;;;6.53;3.90;;;;;;;10.87;81.65;98578.44;10323803;28;20109;-88
2024/02/22 08:06:44;;;;;;;7.55;3.78;;;;;;;10.85;82.01;98565.22;10324304;28;20077;-91
2024/02/22 08:11:45;;;;;;;7.22;3.95;;;;;;;10.85;82.07;98556.34;10320466;28;20054;-90
2024/02/22 08:16:48;;;;;;;7.80;4.00;;;;;;;10.88;81.82;98553.19;10336550;28;20089;-89
2024/02/22 08:21:51;;;;;;;5.70;3.15;;;;;;;10.88;81.92;98543.28;10366442;23;20128;-68
2024/02/22 08:26:53;;;;;;;7.35;3.20;;;;;;;10.85;82.20;98537.53;10358182;28;20054;-70
2024/02/22 08:31:54;;;;;;;5.35;3.42;;;;;;;10.94;81.96;98535.38;10365907;28;20037;-69
2024/02/22 08:36:56;;;;;;;4.57;2.67;;;;;;;10.92;82.05;98530.22;10361943;28;20068;-69
2024/02/22 08:41:58;;;;;;;5.07;3.08;;;;;;;10.91;82.37;98518.63;10361616;28;20464;-67
2024/02/22 08:47:03;;;;;;;3.88;2.38;;;;;;;10.91;82.07;98523.19;10361804;28;20408;-68
2024/02/22 08:52:06;;;;;;;3.83;2.65;;;;;;;11.01;81.98;98517.31;10354548;28;20037;-67
2024/02/22 08:57:07;;;;;;;4.82;2.80;;;;;;;11.08;82.00;98493.88;10354671;28;20096;-67
2024/02/22 09:02:09;;;;;;;5.00;3.00;;;;;;;11.10;81.92;98486.38;10354466;28;20061;-68
2024/02/22 09:07:11;;;;;;;4.35;2.90;;;;;;;11.05;81.87;98480.84;10353451;28;20100;-67
2024/02/22 09:12:12;;;;;;;4.47;2.70;;;;;;;11.08;81.93;98467.78;10357240;28;20053;-69
2024/02/22 09:17:14;;;;;;;5.00;2.60;;;;;;;11.17;81.70;98457.53;10357377;28;20068;-69
2024/02/22 09:22:16;;;;;;;3.70;1.85;;;;;;;11.13;81.93;98445.59;10357394;28;20149;-68
2024/02/22 09:27:17;;;;;;;5.93;3.00;;;;;;;11.14;81.98;98438.34;10356318;28;20037;-69
2024/02/22 09:32:19;;;;;;;4.03;2.45;;;;;;;11.23;81.68;98432.41;10357438;28;20042;-65
2024/02/22 09:37:21;;;;;;;2.78;2.30;;;;;;;11.20;82.18;98424.00;10358801;28;20049;-65
2024/02/22 09:42:26;;;;;;;3.25;2.28;;;;;;;11.21;81.90;98417.56;10355722;28;20045;-66
2024/02/22 09:47:29;;;;;;;3.75;1.90;;;;;;;11.25;82.30;98422.25;10365827;28;20059;-66
2024/02/22 09:52:31;;;;;;;3.15;2.28;;;;;;;11.36;82.05;98411.78;10365985;28;20050;-64
2024/02/22 09:57:33;;;;;;;2.33;1.75;;;;;;;11.39;81.94;98390.59;10361053;28;20053;-64
2024/02/22 10:02:35;;;;;;;4.07;1.67;;;;;;;11.42;82.01;98387.47;10359855;28;20061;-64
2024/02/22 10:07:38;;;;;;;2.05;1.52;;;;;;;11.41;82.22;98368.84;10360643;28;20042;-64
2024/02/22 10:12:43;;;;;;;3.38;1.10;;;;;;;11.41;82.22;98372.34;10362046;28;20057;-64
2024/02/22 10:17:48;;;;;;;2.88;1.02;;;;;;;11.41;82.06;98360.78;10355614;28;20145;-66
2024/02/22 10:22:49;;;;;;;1.58;1.00;;;;;;;11.46;82.15;98355.53;10362838;28;20100;-66
2024/02/22 10:27:51;;;;;;;2.15;1.17;;;;;;;11.45;82.07;98341.28;10358489;28;20101;-67
2024/02/22 10:32:55;;;;;;;2.88;1.08;;;;;;;11.57;81.71;98346.69;10362091;28;20038;-67
2024/02/22 10:37:57;;;;;;;4.43;1.40;;;;;;;11.59;81.84;98325.75;10360876;28;20050;-67
2024/02/22 10:42:59;;;;;;;2.83;1.60;;;;;;;11.63;81.95;98307.22;10363603;28;20050;-72
2024/02/22 10:48:05;;;;;;;1.35;1.02;;;;;;;11.62;82.60;98295.66;10357300;28;20041;-72
2024/02/22 10:53:12;;;;;;;1.55;1.20;;;;;;;11.67;82.20;98284.19;10363093;28;20100;-73
2024/02/22 10:58:18;;;;;;;1.13;0.77;;;;;;;11.76;82.43;98268.50;10360979;28;20053;-73
2024/02/22 11:03:21;;;;;;;1.40;0.98;;;;;;;11.75;82.38;98258.78;10358653;28;20045;-72
2024/02/22 11:08:28;;;;;;;2.78;1.05;;;;;;;11.84;82.02;98252.81;10362240;28;20038;-73
2024/02/22 11:13:29;;;;;;;2.83;1.00;;;;;;;11.83;82.40;98250.38;10359216;28;20128;-72
2024/02/22 11:18:31;;;;;;;2.35;1.10;;;;;;;11.84;82.08;98223.19;10359421;28;20293;-71
2024/02/22 11:23:34;;;;;;;2.05;1.10;;;;;;;11.88;82.29;98212.78;10361469;28;20436;-71
2024/02/22 11:28:36;;;;;;;1.48;0.85;;;;;;;11.86;82.63;98196.84;10363937;28;20046;-72
2024/02/22 11:33:39;;;;;;;3.30;1.38;;;;;;;11.89;82.64;98182.97;10359018;28;20108;-71
2024/02/22 11:38:40;;;;;;;1.75;0.90;;;;;;;11.89;82.37;98174.88;10356913;28;20082;-71
2024/02/22 11:43:43;;;;;;;1.35;1.20;;;;;;;11.90;82.46;98152.28;10365100;28;20042;-72
2024/02/22 11:48:44;;;;;;;2.38;0.90;;;;;;;12.00;82.27;98142.78;10364688;28;20042;-72
2024/02/22 11:53:57;;;;;;;1.08;0.82;;;;;;;12.00;82.29;98119.34;10360158;28;20050;-72
2024/02/22 11:58:58;;;;;;;1.88;0.75;;;;;;;12.01;82.34;98102.16;10361052;28;20061;-69
2024/02/22 12:04:01;;;;;;;1.30;0.77;;;;;;;12.09;82.12;98076.72;10358285;28;20072;-73
2024/02/22 12:09:03;;;;;;;2.45;0.68;;;;;;;12.04;82.29;98071.22;10359687;28;20523;-73
2024/02/22 12:14:04;;;;;;;1.50;0.77;;;;;;;12.01;82.15;98071.72;10359491;28;20034;-73
2024/02/22 12:19:06;;;;;;;2.40;0.60;;;;;;;12.02;82.32;98070.66;10354045;28;20096;-69
2024/02/22 12:24:08;;;;;;;0.43;0.43;;;;;;;12.07;82.02;98073.44;10365093;28;20050;-69
2024/02/22 12:29:10;;;;;;;2.90;0.40;;;;;;;12.09;82.31;98060.56;10362380;28;20046;-73
2024/02/22 12:34:16;;;;;;;0.50;0.30;;;;;;;12.06;82.24;98042.19;10358846;28;20472;-74
2024/02/22 12:39:19;;;;;;;0.40;0.20;;;;;;;12.10;82.52;98036.09;10358745;28;20050;-74
2024/02/22 12:44:20;;;;;;;0.50;0.30;;;;;;;12.14;82.78;98036.38;10359497;28;20365;-72
2024/02/22 12:49:22;;;;;;;0.35;0.22;;;;;;;12.15;82.80;98024.56;10358382;28;20571;-72
2024/02/22 12:54:24;;;;;;;0.57;0.47;;;;;;;12.09;82.66;98004.81;10357138;28;20504;-72
2024/02/22 12:59:26;;;;;;;0.90;0.30;;;;;;;12.13;82.74;97990.88;10356164;28;20518;-71
2024/02/22 13:04:29;;;;;;;3.25;0.40;;;;;;;12.05;83.09;97990.22;10364825;28;20053;-69
2024/02/22 13:09:30;;;;;;;0.20;0.20;;;;;;;12.02;83.11;97976.41;10379174;28;20044;-68
2024/02/22 13:14:32;;;;;;;0.30;0.20;;;;;;;12.02;82.98;97954.88;10399559;28;20144;-68
2024/02/22 13:19:33;;;;;;;1.77;0.40;;;;;;;11.97;83.15;97944.84;10413376;28;20049;-67
2024/02/22 13:24:35;;;;;;;0.93;0.30;;;;;;;11.96;82.88;97929.72;10467691;22;20106;-87
2024/02/22 13:29:38;;;;;;;1.90;0.40;;;;;;;11.99;82.80;97915.00;10387440;28;20104;-86
2024/02/22 13:34:44;;;;;;;1.85;0.30;;;;;;;11.97;82.67;97890.19;10384856;28;20070;-86
2024/02/22 13:39:48;;;;;;;0.93;0.30;;;;;;;11.98;82.82;97875.66;10389668;28;20064;-86
2024/02/22 13:44:59;;;;;;;2.00;0.57;;;;;;;11.90;82.68;97856.16;10376352;28;20050;-87
2024/02/22 13:50:01;;;;;;;0.88;0.40;;;;;;;11.89;82.94;97845.66;10388983;28;20064;-85
2024/02/22 13:55:07;;;;;;;0.70;0.30;;;;;;;11.94;83.10;97836.81;10356894;23;20081;-68
2024/02/22 14:00:10;;;;;;;0.55;0.30;;;;;;;11.93;82.92;97822.56;10389718;28;20060;-67
2024/02/22 14:05:11;;;;;;;0.65;0.32;;;;;;;11.94;82.97;97824.16;10402322;28;20041;-67
2024/02/22 14:10:14;;;;;;;1.95;0.40;;;;;;;11.97;83.03;97820.19;10476182;22;20116;-88
2024/02/22 14:15:16;;;;;;;4.00;0.40;;;;;;;12.02;83.02;97798.69;10420952;28;20042;-87
2024/02/22 14:20:18;;;;;;;0.93;0.50;;;;;;;12.00;82.94;97798.13;10387234;28;20049;-87
2024/02/22 14:25:22;;;;;;;2.15;0.70;;;;;;;12.00;83.20;97792.75;10373450;28;20069;-86
2024/02/22 14:30:24;;;;;;;1.27;0.60;;;;;;;12.02;83.14;97763.69;10370239;28;20030;-88
2024/02/22 14:35:26;;;;;;;0.70;0.43;;;;;;;12.02;82.90;97761.00;10364343;28;20232;-87
2024/02/22 14:40:30;;;;;;;2.38;0.50;;;;;;;12.02;83.50;97755.63;10368377;28;20042;-88
2024/02/22 14:45:32;;;;;;;2.55;0.50;;;;;;;12.03;83.22;97755.38;10368952;28;20088;-86
2024/02/22 14:50:34;;;;;;;1.88;0.40;;;;;;;12.00;83.21;97731.63;10370909;28;20058;-85
2024/02/22 14:55:36;;;;;;;1.38;0.40;;;;;;;11.97;83.15;97713.31;10377586;28;20038;-84
2024/02/22 15:00:42;;;;;;;1.05;0.50;;;;;;;11.95;83.11;97715.44;10356536;28;20112;-84
2024/02/22 15:05:44;;;;;;;1.45;0.50;;;;;;;11.98;83.58;97687.19;10366298;28;20061;-89
2024/02/22 15:10:46;;;;;;;0.43;0.30;;;;;;;11.88;83.03;97680.56;10381093;22;20771;-62
2024/02/22 15:15:47;;;;;;;1.33;0.47;;;;;;;11.87;83.67;97675.47;10368218;28;20111;-63
2024/02/22 15:20:50;;;;;;;1.75;0.80;;;;;;;11.89;83.32;97671.47;10375636;28;20061;-65
2024/02/22 15:25:51;;;;;;;0.70;0.52;;;;;;;11.91;83.27;97660.47;10373600;28;20046;-62
2024/02/22 15:30:53;;;;;;;1.20;0.60;;;;;;;11.86;83.57;97652.28;10314090;28;20185;-62
2024/02/22 15:35:58;;;;;;;0.73;0.60;;;;;;;11.84;83.67;97630.19;10303133;28;20046;-62
2024/02/22 15:41:00;;;;;;;2.22;0.95;;;;;;;11.80;83.48;97637.94;10299796;28;20044;-63
2024/02/22 15:46:01;;;;;;;1.33;1.08;;;;;;;11.80;83.71;97621.00;10300158;28;20053;-62
2024/02/22 15:51:04;;;;;;;1.98;0.50;;;;;;;11.75;83.58;97607.47;10308942;28;20498;-64
2024/02/22 15:56:07;;;;;;;0.70;0.40;;;;;;;11.75;83.46;97600.22;10297243;28;20056;-64
2024/02/22 16:01:12;;;;;;;1.70;0.50;;;;;;;11.68;83.70;97595.03;10301348;28;20088;-65
2024/02/22 16:06:19;;;;;;;1.30;0.60;;;;;;;11.70;84.00;97586.72;10299108;28;20460;-64
2024/02/22 16:11:21;;;;;;;3.00;0.80;;;;;;;11.78;83.74;97567.41;10300863;28;20050;-66
2024/02/22 16:16:23;;;;;;;0.70;0.50;;;;;;;11.69;84.05;97558.19;10284926;28;20042;-66
2024/02/22 16:21:24;;;;;;;0.63;0.40;;;;;;;11.69;83.64;97558.19;10303430;28;20049;-66
2024/02/22 16:26:26;;;;;;;2.45;0.52;;;;;;;11.62;83.64;97554.88;10304055;28;20126;-69
2024/02/22 16:31:28;;;;;;;3.47;0.63;;;;;;;11.60;83.97;97547.03;10305688;28;20038;-64
2024/02/22 16:36:29;;;;;;;2.08;0.60;;;;;;;11.63;83.97;97546.56;10354766;28;20049;-65
2024/02/22 16:41:31;;;;;;;1.55;0.57;;;;;;;11.62;83.91;97536.84;10348740;28;20034;-66
2024/02/22 16:46:32;;;;;;;1.98;0.80;;;;;;;11.63;84.17;97514.25;10352412;28;20038;-65
2024/02/22 16:51:34;;;;;;;2.78;0.60;;;;;;;11.60;84.29;97513.94;10339767;28;20047;-67
2024/02/22 16:56:37;;;;;;;2.00;0.98;;;;;;;11.60;84.17;97513.94;10301701;28;20055;-68
2024/02/22 17:01:38;;;;;;;2.50;0.80;;;;;;;11.61;84.28;97510.19;10307346;28;20046;-66
2024/02/22 17:06:40;;;;;;;1.23;0.90;;;;;;;11.56;84.16;97510.94;10302114;28;20058;-66
2024/02/22 17:11:41;;;;;;;1.30;0.80;;;;;;;11.58;84.06;97516.88;10301809;28;20143;-67
2024/02/22 17:16:42;;;;;;;2.22;0.70;;;;;;;11.59;84.06;97510.47;10302200;28;20125;-67
2024/02/22 17:21:48;;;;;;;1.95;1.10;;;;;;;11.60;84.38;97498.63;10300056;28;20133;-67
2024/02/22 17:26:50;;;;;;;3.13;1.35;;;;;;;11.57;84.21;97496.44;10300606;28;20072;-66
2024/02/22 17:31:52;;;;;;;2.65;1.33;;;;;;;11.59;84.08;97486.25;10298824;28;20043;-66
2024/02/22 17:36:54;;;;;;;3.28;1.13;;;;;;;11.61;84.11;97502.94;10297687;28;20054;-68
2024/02/22 17:41:56;;;;;;;3.38;1.17;;;;;;;11.66;83.80;97497.59;10297988;28;20125;-60
2024/02/22 17:46:58;;;;;;;4.38;1.88;;;;;;;11.65;84.04;97479.00;10290730;28;20042;-60
2024/02/22 17:52:00;;;;;;;6.07;1.55;;;;;;;11.66;84.47;97470.69;10294411;28;20243;-60
2024/02/22 17:57:03;;;;;;;2.47;1.50;;;;;;;11.61;84.14;97470.66;10301113;28;20046;-59
2024/02/22 18:02:06;;;;;;;2.97;1.35;;;;;;;11.63;83.98;97468.53;10302531;28;20074;-60
2024/02/22 18:07:08;;;;;;;2.28;1.23;;;;;;;11.69;84.14;97480.16;10303599;28;20375;-59
2024/02/22 18:12:10;;;;;;;2.50;1.50;;;;;;;11.69;84.03;97467.50;10300006;28;20055;-61
2024/02/22 18:17:11;;;;;;;6.82;1.98;;;;;;;11.70;84.07;97471.81;10304080;28;20069;-64
2024/02/22 18:22:13;;;;;;;2.00;1.05;;;;;;;11.69;84.32;97456.75;10303113;28;20098;-60
2024/02/22 18:27:14;;;;;;;2.33;0.98;;;;;;;11.70;84.44;97454.84;10308531;28;20393;-61
2024/02/22 18:32:16;;;;;;;3.13;0.85;;;;;;;11.71;83.79;97454.59;10304485;28;20365;-60
2024/02/22 18:37:17;;;;;;;3.13;0.90;;;;;;;11.73;84.16;97454.34;10299212;28;20456;-62
2024/02/22 18:42:19;;;;;;;4.93;0.95;;;;;;;11.73;84.13;97458.91;10308179;28;20046;-61
2024/02/22 18:47:20;;;;;;;2.10;1.05;;;;;;;11.70;84.16;97461.03;10302329;28;20046;-60
2024/02/22 18:52:21;;;;;;;3.28;1.00;;;;;;;11.69;83.95;97454.06;10304823;28;20133;-66
2024/02/22 18:57:23;;;;;;;1.17;0.80;;;;;;;11.69;83.97;97435.22;10306897;28;20053;-64
2024/02/22 19:02:26;;;;;;;3.05;1.00;;;;;;;11.73;83.82;97413.16;10304880;28;20038;-66
2024/02/22 19:07:29;;;;;;;1.92;1.10;;;;;;;11.76;83.84;97394.63;10302927;28;20049;-66
2024/02/22 19:12:30;;;;;;;4.60;1.00;;;;;;;11.73;84.12;97386.25;10298728;28;20042;-68
2024/02/22 19:17:32;;;;;;;3.70;0.88;;;;;;;11.72;83.82;97361.22;10295607;28;20129;-65
2024/02/22 19:22:36;;;;;;;4.28;0.70;;;;;;;11.74;83.82;97380.63;10300889;28;20108;-62
2024/02/22 19:27:38;;;;;;;1.42;0.60;;;;;;;11.78;83.84;97381.72;10302120;28;20054;-67
2024/02/22 19:32:43;;;;;;;1.60;0.80;;;;;;;11.76;83.71;97378.47;10306919;28;20046;-65
2024/02/22 19:37:47;;;;;;;1.02;0.85;;;;;;;11.78;83.54;97375.53;10304005;28;20064;-64
2024/02/22 19:42:48;;;;;;;1.02;0.60;;;;;;;11.78;83.70;97348.63;10300157;28;20038;-65
2024/02/22 19:47:50;;;;;;;2.20;0.80;;;;;;;11.71;83.25;97327.34;10298348;28;20046;-63
2024/02/22 19:52:51;;;;;;;2.45;0.60;;;;;;;11.68;83.24;97325.16;10300423;28;20046;-65
2024/02/22 19:57:53;;;;;;;1.45;0.60;;;;;;;11.68;83.21;97336.72;10299049;28;20038;-64
2024/02/22 20:02:54;;;;;;;1.65;0.52;;;;;;;11.71;83.09;97330.81;10301322;28;20046;-58
2024/02/22 20:07:55;;;;;;;0.90;0.60;;;;;;;11.75;82.66;97306.06;10301245;28;20060;-59
2024/02/22 20:12:57;;;;;;;1.15;0.70;;;;;;;11.75;82.27;97336.50;10306181;28;20109;-59
2024/02/22 20:17:59;;;;;;;2.88;0.50;;;;;;;11.85;82.18;97343.84;10299242;28;20061;-58
2024/02/22 20:23:01;;;;;;;1.08;0.50;;;;;;;11.97;81.94;97335.59;10299916;28;20046;-58
2024/02/22 20:28:03;;;;;;;2.88;0.52;;;;;;;12.04;81.60;97342.38;10298890;28;20042;-59
2024/02/22 20:33:06;;;;;;;1.60;0.60;;;;;;;12.18;80.79;97360.75;10303002;28;20053;-59
2024/02/22 20:38:08;;;;;;;0.82;0.50;;;;;;;12.30;80.35;97367.59;10297271;28;20065;-60
2024/02/22 20:43:09;;;;;;;0.68;0.50;;;;;;;12.41;79.09;97373.03;10302829;28;20081;-59
2024/02/22 20:48:12;;;;;;;1.08;0.40;;;;;;;12.41;77.82;97418.81;10298089;28;20506;-58
2024/02/22 20:53:14;;;;;;;0.38;0.28;;;;;;;11.89;78.53;97388.84;10307718;28;20167;-57
2024/02/22 20:58:15;;;;;;;0.40;0.20;;;;;;;11.69;78.13;97383.28;10305861;28;20381;-58
2024/02/22 21:03:16;;;;;;;0.40;0.30;;;;;;;11.66;78.04;97402.63;10300965;28;20827;-59
2024/02/22 21:08:18;;;;;;;1.33;0.20;;;;;;;11.74;77.26;97444.41;10299322;28;20402;-59
2024/02/22 21:13:20;;;;;;;1.20;0.20;;;;;;;11.80;76.68;97460.31;10296919;28;20253;-61
2024/02/22 21:18:22;;;;;;;1.05;0.20;;;;;;;11.85;76.22;97492.69;10296487;28;20076;-61
2024/02/22 21:23:23;;;;;;;2.92;0.20;;;;;;;11.86;76.06;97523.91;10301420;28;20553;-62
2024/02/22 21:28:26;;;;;;;0.40;0.10;;;;;;;11.91;75.70;97560.88;10299138;28;20077;-64
2024/02/22 21:33:28;;;;;;;0.50;0.28;;;;;;;11.92;75.73;97584.00;10301261;28;20046;-62
2024/02/22 21:38:31;;;;;;;0.20;0.10;;;;;;;11.88;75.24;97625.94;10298248;28;20073;-63
2024/02/22 21:43:33;;;;;;;1.33;0.10;;;;;;;11.82;75.10;97640.41;10310001;28;20136;-64
2024/02/22 21:48:34;;;;;;;1.48;0.10;;;;;;;11.77;74.09;97638.47;10309495;28;20046;-63
2024/02/22 21:53:36;;;;;;;0.90;0.10;;;;;;;11.68;73.94;97648.84;10311193;28;20069;-63
2024/02/22 21:58:38;;;;;;;3.20;0.10;;;;;;;11.60;73.75;97670.81;10309805;28;20125;-62
2024/02/22 22:03:40;;;;;;;0.65;0.00;;;;;;;11.50;73.19;97673.38;10304604;28;20537;-62
2024/02/22 22:08:41;;;;;;;1.30;0.10;;;;;;;11.42;72.45;97709.56;10305629;28;20109;-62
2024/02/22 22:13:43;;;;;;;0.30;0.00;;;;;;;11.39;71.77;97710.03;10303630;28;20200;-61
2024/02/22 22:18:45;;;;;;;0.28;0.10;;;;;;;11.37;71.15;97706.78;10301832;28;20073;-63
2024/02/22 22:23:47;;;;;;;0.10;0.00;;;;;;;11.34;71.02;97722.63;10305080;28;20074;-64
2024/02/22 22:28:49;;;;;;;1.02;0.00;;;;;;;11.27;71.21;97714.72;10309111;28;20042;-64
2024/02/22 22:33:51;;;;;;;0.85;0.00;;;;;;;11.22;70.78;97710.09;10306863;28;20054;-64
2024/02/22 22:38:52;;;;;;;0.20;0.00;;;;;;;11.18;70.72;97716.19;10305992;28;20482;-62
2024/02/22 22:43:54;;;;;;;0.45;0.00;;;;;;;11.14;70.78;97732.00;10309693;28;20058;-64
2024/02/22 22:48:56;;;;;;;1.55;0.10;;;;;;;11.06;70.47;97729.72;10307360;28;20045;-64
2024/02/22 22:53:57;;;;;;;0.10;0.00;;;;;;;10.97;70.33;97733.88;10305217;28;20054;-64
2024/02/22 22:58:59;;;;;;;0.00;0.00;;;;;;;10.83;69.69;97760.25;10303786;28;20053;-64
2024/02/22 23:04:00;;;;;;;0.82;0.00;;;;;;;10.76;69.29;97786.44;10303326;28;20047;-63
2024/02/22 23:09:03;;;;;;;0.20;0.00;;;;;;;10.70;69.32;97791.72;10301734;28;20046;-65
2024/02/22 23:14:05;;;;;;;0.32;0.10;;;;;;;10.67;69.12;97796.75;10304689;28;20502;-63
2024/02/22 23:19:06;;;;;;;4.55;0.57;;;;;;;10.61;69.17;97821.91;10303915;28;20046;-63
2024/02/22 23:24:08;;;;;;;0.40;0.10;;;;;;;10.57;68.94;97840.34;10309143;28;20053;-64
2024/02/22 23:29:10;;;;;;;1.15;0.10;;;;;;;10.55;68.13;97855.09;10302136;28;20038;-63